createdAt,value
2022-08-21T00:00:35.199Z,14.41
2022-08-21T00:03:06.298Z,14.40
2022-08-21T00:05:47.653Z,14.37
2022-08-21T00:08:14.806Z,14.32
2022-08-21T00:10:42.337Z,14.28
2022-08-21T00:13:10.060Z,14.22
2022-08-21T00:15:39.520Z,14.18
2022-08-21T00:18:08.690Z,14.14
2022-08-21T00:20:36.069Z,14.10
2022-08-21T00:23:03.376Z,14.08
2022-08-21T00:25:31.204Z,14.08
2022-08-21T00:27:58.548Z,14.09
2022-08-21T00:30:27.513Z,14.12
2022-08-21T00:32:58.456Z,14.10
2022-08-21T00:35:32.974Z,14.11
2022-08-21T00:38:04.823Z,14.06
2022-08-21T00:40:50.241Z,14.01
2022-08-21T00:43:20.659Z,14.02
2022-08-21T00:45:48.325Z,14.02
2022-08-21T00:48:15.862Z,13.98
2022-08-21T00:50:51.288Z,13.95
2022-08-21T00:53:18.598Z,14.01
2022-08-21T00:55:46.613Z,14.00
2022-08-21T00:58:15.399Z,13.97
2022-08-21T01:00:49.113Z,13.97
2022-08-21T01:03:23.729Z,13.96
2022-08-21T01:05:55.303Z,13.95
2022-08-21T01:08:24.396Z,13.93
2022-08-21T01:10:56.719Z,13.91
2022-08-21T01:13:26.440Z,13.90
2022-08-21T01:15:56.505Z,13.84
2022-08-21T01:18:25.685Z,13.90
2022-08-21T01:21:14.947Z,13.87
2022-08-21T01:23:45.813Z,13.83
2022-08-21T01:26:17.363Z,13.80
2022-08-21T01:28:59.327Z,13.75
2022-08-21T01:31:30.476Z,13.73
2022-08-21T01:33:57.763Z,13.67
2022-08-21T01:36:26.773Z,13.65
2022-08-21T01:38:53.812Z,13.65
2022-08-21T01:41:20.952Z,13.66
2022-08-21T01:43:48.297Z,13.68
2022-08-21T01:46:16.002Z,13.65
2022-08-21T01:48:43.913Z,13.66
2022-08-21T01:51:12.899Z,13.67
2022-08-21T01:53:40.081Z,13.67
2022-08-21T01:56:12.670Z,13.66
2022-08-21T01:58:45.361Z,13.61
2022-08-21T02:01:12.872Z,13.61
2022-08-21T02:03:41.757Z,13.59
2022-08-21T02:06:14.806Z,13.53
2022-08-21T02:08:41.840Z,13.49
2022-08-21T02:11:08.953Z,13.53
2022-08-21T02:13:36.173Z,13.47
2022-08-21T02:16:03.523Z,13.52
2022-08-21T02:18:30.851Z,13.49
2022-08-21T02:20:57.860Z,13.50
2022-08-21T02:23:27.000Z,13.46
2022-08-21T02:25:58.089Z,13.41
2022-08-21T02:28:29.451Z,13.31
2022-08-21T02:30:58.050Z,13.34
2022-08-21T02:33:27.621Z,13.29
2022-08-21T02:35:55.268Z,13.28
2022-08-21T02:38:26.322Z,13.25
2022-08-21T02:40:55.222Z,13.25
2022-08-21T02:43:25.248Z,13.19
2022-08-21T02:45:57.694Z,13.22
2022-08-21T02:48:28.356Z,13.17
2022-08-21T02:51:00.345Z,13.10
2022-08-21T02:53:30.851Z,13.19
2022-08-21T02:56:00.535Z,13.14
2022-08-21T02:58:31.323Z,13.16
2022-08-21T03:00:59.303Z,13.14
2022-08-21T03:03:30.496Z,13.14
2022-08-21T03:05:57.757Z,13.13
2022-08-21T03:08:27.848Z,13.14
2022-08-21T03:10:56.627Z,13.12
2022-08-21T03:13:27.133Z,13.09
2022-08-21T03:15:55.578Z,13.10
2022-08-21T03:18:30.785Z,13.15
2022-08-21T03:20:57.894Z,13.14
2022-08-21T03:23:25.358Z,13.14
2022-08-21T03:26:00.553Z,13.12
2022-08-21T03:28:28.124Z,13.12
2022-08-21T03:30:57.179Z,13.10
2022-08-21T03:33:27.063Z,13.09
2022-08-21T03:36:01.704Z,13.08
2022-08-21T03:38:31.668Z,13.06
2022-08-21T03:41:00.959Z,13.01
2022-08-21T03:43:32.646Z,13.02
2022-08-21T03:46:04.496Z,13.01
2022-08-21T03:48:36.563Z,12.95
2022-08-21T03:51:04.697Z,12.94
2022-08-21T03:53:31.836Z,12.89
2022-08-21T03:56:00.211Z,12.86
2022-08-21T03:58:30.501Z,12.83
2022-08-21T04:01:00.246Z,12.80
2022-08-21T04:03:30.836Z,12.78
2022-08-21T04:05:58.202Z,12.75
2022-08-21T04:08:26.865Z,12.76
2022-08-21T04:10:57.743Z,12.77
2022-08-21T04:13:26.295Z,12.76
2022-08-21T04:15:53.961Z,12.76
2022-08-21T04:18:22.297Z,12.72
2022-08-21T04:20:54.051Z,12.77
2022-08-21T04:23:24.703Z,12.75
2022-08-21T04:25:56.969Z,12.75
2022-08-21T04:28:29.052Z,12.74
2022-08-21T04:30:57.853Z,12.74
2022-08-21T04:33:26.358Z,12.69
2022-08-21T04:35:53.845Z,12.72
2022-08-21T04:38:23.338Z,12.68
2022-08-21T04:40:52.143Z,12.72
2022-08-21T04:43:20.530Z,12.70
2022-08-21T04:45:50.270Z,12.68
2022-08-21T04:48:21.136Z,12.66
2022-08-21T04:50:57.099Z,12.68
2022-08-21T04:53:43.977Z,12.66
2022-08-21T04:56:16.331Z,12.65
2022-08-21T04:58:44.011Z,12.68
2022-08-21T05:01:16.959Z,12.68
2022-08-21T05:03:48.155Z,12.65
2022-08-21T05:06:16.610Z,12.66
2022-08-21T05:08:47.137Z,12.65
2022-08-21T05:11:14.197Z,12.66
2022-08-21T05:13:44.910Z,12.65
2022-08-21T05:16:12.030Z,12.66
2022-08-21T05:18:39.667Z,12.67
2022-08-21T05:21:06.694Z,12.73
2022-08-21T05:23:33.790Z,12.75
2022-08-21T05:26:02.054Z,12.78
2022-08-21T05:28:30.343Z,12.81
2022-08-21T05:31:00.734Z,12.82
2022-08-21T05:33:27.803Z,12.91
2022-08-21T05:35:59.252Z,12.95
2022-08-21T05:38:29.555Z,12.99
2022-08-21T05:40:56.818Z,13.03
2022-08-21T05:43:23.887Z,13.10
2022-08-21T05:45:50.973Z,13.13
2022-08-21T05:48:22.076Z,13.21
2022-08-21T05:50:53.607Z,13.25
2022-08-21T05:53:23.531Z,13.36
2022-08-21T05:55:52.310Z,13.45
2022-08-21T05:58:22.432Z,13.57
2022-08-21T06:01:00.662Z,13.68
2022-08-21T06:03:30.618Z,13.82
2022-08-21T06:05:59.475Z,13.92
2022-08-21T06:08:27.810Z,14.04
2022-08-21T06:10:59.817Z,14.15
2022-08-21T06:13:27.978Z,14.27
2022-08-21T06:16:16.426Z,14.41
2022-08-21T06:18:45.507Z,14.41
2022-08-21T06:21:14.586Z,14.62
2022-08-21T06:23:42.377Z,14.72
2022-08-21T06:26:11.177Z,14.81
2022-08-21T06:28:38.779Z,14.87
2022-08-21T06:31:15.265Z,15.05
2022-08-21T06:33:42.383Z,15.11
2022-08-21T06:36:10.326Z,15.25
2022-08-21T06:38:37.971Z,15.35
2022-08-21T06:41:06.527Z,15.48
2022-08-21T06:43:39.866Z,15.62
2022-08-21T06:46:08.674Z,15.76
2022-08-21T06:48:36.073Z,15.88
2022-08-21T06:51:03.743Z,16.01
2022-08-21T06:53:30.798Z,16.19
2022-08-21T06:55:57.835Z,16.29
2022-08-21T06:58:27.386Z,16.41
2022-08-21T07:01:00.169Z,16.63
2022-08-21T07:03:34.125Z,16.74
2022-08-21T07:06:01.299Z,16.85
2022-08-21T07:08:29.263Z,16.96
2022-08-21T07:11:01.462Z,17.04
2022-08-21T07:13:29.449Z,17.17
2022-08-21T07:16:00.397Z,17.19
2022-08-21T07:18:30.848Z,17.08
2022-08-21T07:21:00.794Z,17.25
2022-08-21T07:23:37.473Z,17.28
2022-08-21T07:26:04.869Z,17.46
2022-08-21T07:28:32.353Z,17.62
2022-08-21T07:31:01.589Z,17.77
2022-08-21T07:33:31.677Z,17.87
2022-08-21T07:35:59.458Z,18.04
2022-08-21T07:38:27.868Z,18.06
2022-08-21T07:40:57.703Z,18.04
2022-08-21T07:43:26.916Z,18.01
2022-08-21T07:45:55.244Z,18.10
2022-08-21T07:48:26.511Z,18.08
2022-08-21T07:50:53.613Z,18.01
2022-08-21T07:53:20.733Z,18.20
2022-08-21T07:55:47.791Z,18.32
2022-08-21T07:58:14.804Z,18.25
2022-08-21T08:00:41.975Z,18.37
2022-08-21T08:03:09.527Z,18.53
2022-08-21T08:05:40.828Z,18.63
2022-08-21T08:08:08.038Z,18.75
2022-08-21T08:10:35.623Z,18.79
2022-08-21T08:13:02.778Z,18.89
2022-08-21T08:15:33.342Z,19.05
2022-08-21T08:18:04.459Z,19.08
2022-08-21T08:20:31.540Z,19.20
2022-08-21T08:22:59.176Z,19.06
2022-08-21T08:25:36.917Z,19.02
2022-08-21T08:28:16.211Z,19.05
2022-08-21T08:30:47.469Z,19.26
2022-08-21T08:33:15.499Z,19.32
2022-08-21T08:35:45.973Z,19.36
2022-08-21T08:38:13.446Z,19.40
2022-08-21T08:40:52.336Z,19.41
2022-08-21T08:43:20.248Z,19.35
2022-08-21T08:45:52.385Z,19.45
2022-08-21T08:49:00.235Z,19.67
2022-08-21T08:51:48.497Z,19.85
2022-08-21T08:54:26.791Z,20.12
2022-08-21T08:56:57.069Z,20.37
2022-08-21T08:59:29.447Z,20.56
2022-08-21T09:01:57.641Z,20.68
2022-08-21T09:04:30.326Z,20.84
2022-08-21T09:07:30.680Z,21.08
2022-08-21T09:10:07.037Z,20.77
2022-08-21T09:12:54.060Z,20.32
2022-08-21T09:15:55.624Z,20.23
2022-08-21T09:18:41.297Z,20.43
2022-08-21T09:21:41.881Z,20.67
2022-08-21T09:24:51.861Z,20.74
2022-08-21T09:27:22.616Z,20.70
2022-08-21T09:29:53.863Z,20.51
2022-08-21T09:32:36.614Z,20.39
2022-08-21T09:35:20.928Z,20.37
2022-08-21T09:37:50.765Z,20.62
2022-08-21T09:40:23.832Z,20.94
2022-08-21T09:43:26.509Z,21.11
2022-08-21T09:46:25.462Z,21.29
2022-08-21T09:48:56.514Z,21.53
2022-08-21T09:51:28.835Z,21.63
2022-08-21T09:54:15.016Z,21.56
2022-08-21T09:57:20.398Z,21.26
2022-08-21T09:59:48.036Z,21.33
2022-08-21T10:02:33.550Z,21.34
2022-08-21T10:05:04.133Z,21.22
2022-08-21T10:07:33.504Z,21.42
2022-08-21T10:10:02.479Z,21.68
2022-08-21T10:12:56.875Z,21.90
2022-08-21T10:15:36.881Z,21.74
2022-08-21T10:18:13.927Z,21.97
2022-08-21T10:21:09.115Z,22.00
2022-08-21T10:23:57.048Z,22.07
2022-08-21T10:26:54.355Z,22.04
2022-08-21T10:29:53.246Z,21.95
2022-08-21T10:32:41.865Z,21.97
2022-08-21T10:35:25.068Z,22.11
2022-08-21T10:38:46.225Z,22.01
2022-08-21T10:41:30.604Z,22.00
2022-08-21T10:44:09.452Z,22.23
2022-08-21T10:46:48.456Z,22.48
2022-08-21T10:49:40.894Z,22.55
2022-08-21T10:52:25.489Z,22.71
2022-08-21T10:55:09.800Z,22.84
2022-08-21T10:57:52.577Z,22.87
2022-08-21T11:00:27.602Z,22.91
2022-08-21T11:03:26.344Z,22.90
2022-08-21T11:06:01.060Z,22.55
2022-08-21T11:08:43.100Z,22.44
2022-08-21T11:11:21.645Z,22.25
2022-08-21T11:14:37.889Z,22.42
2022-08-21T11:17:12.284Z,22.60
2022-08-21T11:20:00.552Z,22.69
2022-08-21T11:23:01.521Z,22.64
2022-08-21T11:25:36.959Z,22.68
2022-08-21T11:28:23.669Z,22.88
2022-08-21T11:31:05.646Z,23.01
2022-08-21T11:33:54.451Z,23.05
2022-08-21T11:36:32.702Z,23.20
2022-08-21T11:39:53.925Z,22.80
2022-08-21T11:43:01.552Z,22.42
2022-08-21T11:46:05.344Z,22.55
2022-08-21T11:48:45.365Z,22.67
2022-08-21T11:51:18.955Z,22.92
2022-08-21T11:53:54.500Z,23.11
2022-08-21T11:56:44.148Z,22.71
2022-08-21T11:59:32.151Z,22.57
2022-08-21T12:02:00.614Z,22.44
2022-08-21T12:04:33.114Z,22.16
2022-08-21T12:07:15.188Z,21.85
2022-08-21T12:09:57.216Z,21.79
2022-08-21T12:12:30.668Z,22.00
2022-08-21T12:15:20.833Z,22.34
2022-08-21T12:18:00.814Z,22.55
2022-08-21T12:20:37.618Z,22.77
2022-08-21T12:23:12.803Z,22.71
2022-08-21T12:25:44.875Z,22.66
2022-08-21T12:28:23.585Z,22.67
2022-08-21T12:30:54.910Z,23.08
2022-08-21T12:33:31.212Z,23.50
2022-08-21T12:36:10.533Z,23.66
2022-08-21T12:39:12.019Z,23.86
2022-08-21T12:41:50.356Z,23.96
2022-08-21T12:44:24.248Z,23.79
2022-08-21T12:47:03.373Z,23.27
2022-08-21T12:49:41.812Z,23.10
2022-08-21T12:52:08.799Z,23.14
2022-08-21T12:54:42.850Z,23.39
2022-08-21T12:57:19.783Z,23.49
2022-08-21T12:59:46.951Z,23.64
2022-08-21T13:02:20.778Z,23.41
2022-08-21T13:04:50.390Z,23.47
2022-08-21T13:07:27.679Z,23.68
2022-08-21T13:10:08.503Z,23.80
2022-08-21T13:12:36.939Z,23.61
2022-08-21T13:15:09.019Z,23.67
2022-08-21T13:17:42.281Z,23.77
2022-08-21T13:20:33.259Z,24.08
2022-08-21T13:23:06.849Z,23.84
2022-08-21T13:25:37.398Z,24.18
2022-08-21T13:28:14.221Z,24.21
2022-08-21T13:30:53.646Z,24.75
2022-08-21T13:33:25.520Z,24.90
2022-08-21T13:36:23.551Z,24.69
2022-08-21T13:38:54.453Z,25.14
2022-08-21T13:41:31.499Z,25.43
2022-08-21T13:44:07.407Z,25.41
2022-08-21T13:46:37.005Z,25.67
2022-08-21T13:49:06.994Z,25.20
2022-08-21T13:51:34.813Z,24.53
2022-08-21T13:54:02.517Z,24.52
2022-08-21T13:56:30.941Z,24.59
2022-08-21T13:59:00.639Z,24.58
2022-08-21T14:01:40.949Z,24.22
2022-08-21T14:04:20.372Z,24.32
2022-08-21T14:06:47.817Z,24.65
2022-08-21T14:09:36.676Z,25.26
2022-08-21T14:12:23.437Z,24.61
2022-08-21T14:14:54.140Z,23.90
2022-08-21T14:17:34.049Z,23.69
2022-08-21T14:20:01.833Z,23.44
2022-08-21T14:22:39.651Z,23.29
2022-08-21T14:25:12.611Z,22.92
2022-08-21T14:28:01.517Z,22.79
2022-08-21T14:30:37.426Z,22.52
2022-08-21T14:33:09.984Z,22.48
2022-08-21T14:35:37.085Z,22.43
2022-08-21T14:38:18.856Z,22.40
2022-08-21T14:40:49.785Z,22.46
2022-08-21T14:43:18.128Z,22.59
2022-08-21T14:45:45.618Z,22.67
2022-08-21T14:48:13.027Z,22.54
2022-08-21T14:50:40.504Z,22.40
2022-08-21T14:53:11.184Z,22.23
2022-08-21T14:55:58.780Z,22.23
2022-08-21T14:58:29.476Z,22.22
2022-08-21T15:00:59.414Z,22.25
2022-08-21T15:03:26.961Z,22.30
2022-08-21T15:05:59.656Z,22.33
2022-08-21T15:08:27.316Z,22.26
2022-08-21T15:11:11.189Z,22.30
2022-08-21T15:13:39.314Z,22.28
2022-08-21T15:16:06.604Z,22.23
2022-08-21T15:18:33.741Z,22.17
2022-08-21T15:21:00.808Z,22.09
2022-08-21T15:23:27.861Z,22.05
2022-08-21T15:25:56.626Z,21.95
2022-08-21T15:28:27.613Z,21.95
2022-08-21T15:31:01.620Z,22.00
2022-08-21T15:33:30.523Z,21.91
2022-08-21T15:35:57.902Z,21.99
2022-08-21T15:38:25.449Z,21.89
2022-08-21T15:40:56.643Z,21.94
2022-08-21T15:43:30.146Z,21.84
2022-08-21T15:46:01.467Z,21.74
2022-08-21T15:48:29.541Z,21.72
2022-08-21T15:50:56.966Z,21.71
2022-08-21T15:53:24.073Z,21.68
2022-08-21T15:55:51.227Z,21.72
2022-08-21T15:58:20.792Z,21.70
2022-08-21T16:00:47.976Z,21.65
2022-08-21T16:03:17.884Z,21.62
2022-08-21T16:05:46.228Z,21.66
2022-08-21T16:08:13.330Z,21.59
2022-08-21T16:10:43.944Z,21.58
2022-08-21T16:13:39.066Z,21.55
2022-08-21T16:16:06.444Z,21.55
2022-08-21T16:18:33.716Z,21.51
2022-08-21T16:21:00.791Z,21.59
2022-08-21T16:23:27.860Z,21.52
2022-08-21T16:25:57.289Z,21.57
2022-08-21T16:28:27.199Z,21.66
2022-08-21T16:30:56.826Z,21.70
2022-08-21T16:33:37.202Z,21.71
2022-08-21T16:36:05.647Z,21.76
2022-08-21T16:38:33.615Z,21.74
2022-08-21T16:41:07.136Z,21.60
2022-08-21T16:43:35.610Z,21.49
2022-08-21T16:46:03.955Z,21.46
2022-08-21T16:48:31.163Z,21.40
2022-08-21T16:50:59.290Z,21.41
2022-08-21T16:53:27.055Z,21.45
2022-08-21T16:55:54.450Z,21.51
2022-08-21T16:58:30.383Z,21.45
2022-08-21T17:00:59.631Z,21.47
2022-08-21T17:03:34.943Z,21.62
2022-08-21T17:06:02.227Z,21.79
2022-08-21T17:08:29.854Z,21.63
2022-08-21T17:10:58.330Z,21.71
2022-08-21T17:13:26.951Z,21.73
2022-08-21T17:15:54.586Z,21.46
2022-08-21T17:18:23.975Z,21.51
2022-08-21T17:20:51.337Z,21.43
2022-08-21T17:23:19.725Z,21.44
2022-08-21T17:25:49.623Z,21.37
2022-08-21T17:28:25.565Z,21.39
2022-08-21T17:30:57.438Z,21.23
2022-08-21T17:33:26.681Z,21.21
2022-08-21T17:35:54.089Z,21.17
2022-08-21T17:38:21.419Z,21.12
2022-08-21T17:40:49.077Z,20.99
2022-08-21T17:43:16.294Z,21.01
2022-08-21T17:45:45.017Z,20.90
2022-08-21T17:48:12.204Z,20.89
2022-08-21T17:50:39.804Z,20.84
2022-08-21T17:53:07.140Z,20.87
2022-08-21T17:55:34.945Z,20.91
2022-08-21T17:58:03.701Z,20.84
2022-08-21T18:00:32.286Z,20.84
2022-08-21T18:03:07.470Z,20.73
2022-08-21T18:05:35.780Z,20.59
2022-08-21T18:08:02.990Z,20.67
2022-08-21T18:10:30.861Z,20.61
2022-08-21T18:13:00.720Z,20.62
2022-08-21T18:15:31.096Z,20.62
2022-08-21T18:18:01.336Z,20.53
2022-08-21T18:20:29.321Z,20.51
2022-08-21T18:22:57.034Z,20.50
2022-08-21T18:25:24.313Z,20.43
2022-08-21T18:27:52.770Z,20.41
2022-08-21T18:30:22.957Z,20.39
2022-08-21T18:32:52.972Z,20.29
2022-08-21T18:35:20.190Z,20.33
2022-08-21T18:37:47.291Z,20.29
2022-08-21T18:40:15.680Z,20.18
2022-08-21T18:42:51.506Z,20.19
2022-08-21T18:45:30.529Z,20.14
2022-08-21T18:47:59.711Z,20.08
2022-08-21T18:50:30.067Z,20.05
2022-08-21T18:52:57.305Z,20.00
2022-08-21T18:55:25.898Z,19.92
2022-08-21T18:57:57.343Z,19.87
2022-08-21T19:00:31.622Z,19.86
2022-08-21T19:03:06.127Z,19.83
2022-08-21T19:05:35.583Z,19.81
2022-08-21T19:08:03.972Z,19.78
2022-08-21T19:10:31.072Z,19.76
2022-08-21T19:13:00.879Z,19.69
2022-08-21T19:15:31.319Z,19.64
2022-08-21T19:17:59.450Z,19.57
2022-08-21T19:20:36.675Z,19.55
2022-08-21T19:23:06.502Z,19.47
2022-08-21T19:25:34.905Z,19.40
2022-08-21T19:28:10.729Z,19.38
2022-08-21T19:30:41.041Z,19.40
2022-08-21T19:33:09.174Z,19.34
2022-08-21T19:35:38.093Z,19.30
2022-08-21T19:38:05.142Z,19.24
2022-08-21T19:40:32.288Z,19.23
2022-08-21T19:43:00.577Z,19.15
2022-08-21T19:45:32.149Z,19.16
2022-08-21T19:48:03.852Z,19.14
2022-08-21T19:50:31.815Z,19.12
2022-08-21T19:53:01.406Z,19.10
2022-08-21T19:55:29.534Z,19.11
2022-08-21T19:57:57.191Z,19.08
2022-08-21T20:00:24.599Z,19.04
2022-08-21T20:02:52.682Z,18.98
2022-08-21T20:05:19.828Z,18.90
2022-08-21T20:07:48.789Z,18.90
2022-08-21T20:10:17.441Z,18.88
2022-08-21T20:12:49.056Z,18.86
2022-08-21T20:15:19.557Z,18.78
2022-08-21T20:17:46.840Z,18.81
2022-08-21T20:20:13.883Z,18.79
2022-08-21T20:22:41.907Z,18.81
2022-08-21T20:25:09.141Z,18.70
2022-08-21T20:27:40.463Z,18.74
2022-08-21T20:30:09.022Z,18.64
2022-08-21T20:32:36.165Z,18.56
2022-08-21T20:35:05.230Z,18.47
2022-08-21T20:37:39.938Z,18.39
2022-08-21T20:40:10.559Z,18.33
2022-08-21T20:42:47.156Z,18.29
2022-08-21T20:45:35.186Z,18.25
2022-08-21T20:48:32.342Z,18.12
2022-08-21T20:51:39.562Z,18.13
2022-08-21T20:54:43.934Z,18.07
2022-08-21T20:57:21.993Z,18.07
2022-08-21T21:00:00.647Z,18.04
2022-08-21T21:02:42.752Z,18.14
2022-08-21T21:05:20.214Z,18.16
2022-08-21T21:08:11.804Z,18.15
2022-08-21T21:10:48.058Z,18.15
2022-08-21T21:13:23.976Z,18.09
2022-08-21T21:15:54.207Z,18.10
2022-08-21T21:18:36.373Z,18.09
2022-08-21T21:21:20.332Z,18.04
2022-08-21T21:23:54.727Z,18.01
2022-08-21T21:26:29.205Z,17.99
2022-08-21T21:29:12.020Z,17.96
2022-08-21T21:31:41.563Z,17.91
2022-08-21T21:34:09.200Z,17.92
2022-08-21T21:37:04.640Z,17.91
2022-08-21T21:39:40.725Z,17.92
2022-08-21T21:42:44.856Z,17.94
2022-08-21T21:45:35.600Z,17.96
2022-08-21T21:48:31.780Z,17.97
2022-08-21T21:51:11.941Z,17.90
2022-08-21T21:54:11.356Z,17.97
2022-08-21T21:57:05.981Z,17.96
2022-08-21T21:59:43.929Z,17.96
2022-08-21T22:02:31.287Z,17.94
2022-08-21T22:05:06.577Z,17.92
2022-08-21T22:07:45.826Z,17.91
2022-08-21T22:10:42.907Z,17.84
2022-08-21T22:13:26.428Z,17.83
2022-08-21T22:16:05.336Z,17.78
2022-08-21T22:18:45.193Z,17.74
2022-08-21T22:21:42.524Z,17.71
2022-08-21T22:24:18.109Z,17.63
2022-08-21T22:26:50.680Z,17.63
2022-08-21T22:29:20.785Z,17.61
2022-08-21T22:32:05.651Z,17.64
2022-08-21T22:34:34.193Z,17.65
2022-08-21T22:37:06.024Z,17.66
2022-08-21T22:39:39.176Z,17.61
2022-08-21T22:42:15.968Z,17.63
2022-08-21T22:44:57.084Z,17.60
2022-08-21T22:47:48.755Z,17.57
2022-08-21T22:50:21.037Z,17.54
2022-08-21T22:52:54.608Z,17.51
2022-08-21T22:55:47.615Z,17.49
2022-08-21T22:58:17.662Z,17.47
2022-08-21T23:01:12.132Z,17.45
2022-08-21T23:03:51.375Z,17.40
2022-08-21T23:07:02.130Z,17.37
2022-08-21T23:09:45.451Z,17.31
2022-08-21T23:12:34.490Z,17.29
2022-08-21T23:15:17.912Z,17.20
2022-08-21T23:18:13.878Z,17.24
2022-08-21T23:21:31.174Z,17.21
2022-08-21T23:24:19.483Z,17.16
2022-08-21T23:27:11.750Z,17.13
2022-08-21T23:29:51.748Z,17.13
2022-08-21T23:32:47.088Z,17.12
2022-08-21T23:35:19.641Z,17.12
2022-08-21T23:37:51.882Z,17.13
2022-08-21T23:40:50.801Z,17.13
2022-08-21T23:44:02.888Z,17.11
2022-08-21T23:46:45.475Z,17.08
2022-08-21T23:49:59.550Z,17.03
2022-08-21T23:52:44.969Z,17.00
2022-08-21T23:55:14.894Z,16.96
2022-08-21T23:58:06.389Z,16.92
